createdAt,value
2018-05-04T00:00:52.184Z,52.60
2018-05-04T00:03:19.702Z,52.60
2018-05-04T00:05:47.188Z,52.80
2018-05-04T00:08:14.702Z,52.90
2018-05-04T00:10:42.220Z,52.80
2018-05-04T00:13:09.710Z,53.10
2018-05-04T00:15:37.991Z,53.50
2018-05-04T00:18:05.512Z,53.50
2018-05-04T00:20:33.014Z,53.70
2018-05-04T00:23:00.524Z,53.80
2018-05-04T00:25:28.022Z,53.60
2018-05-04T00:27:55.553Z,53.80
2018-05-04T00:30:23.050Z,54.00
2018-05-04T00:32:50.547Z,54.90
2018-05-04T00:35:18.052Z,55.10
2018-05-04T00:37:45.573Z,55.10
2018-05-04T00:40:13.817Z,55.50
2018-05-04T00:42:41.340Z,55.50
2018-05-04T00:45:09.014Z,55.60
2018-05-04T00:47:36.506Z,55.70
2018-05-04T00:50:04.096Z,55.80
2018-05-04T00:52:32.411Z,56.20
2018-05-04T00:54:59.928Z,56.20
2018-05-04T00:57:27.488Z,56.30
2018-05-04T00:59:54.976Z,56.50
2018-05-04T01:02:23.249Z,56.80
2018-05-04T01:04:51.646Z,57.00
2018-05-04T01:07:20.026Z,57.00
2018-05-04T01:09:47.530Z,57.00
2018-05-04T01:12:15.016Z,57.20
2018-05-04T01:14:42.504Z,57.20
2018-05-04T01:17:10.776Z,57.60
2018-05-04T01:19:39.786Z,57.60
2018-05-04T01:22:08.057Z,57.70
2018-05-04T01:24:35.559Z,57.60
2018-05-04T01:27:03.580Z,58.20
2018-05-04T01:29:31.102Z,58.00
2018-05-04T01:31:58.596Z,58.20
2018-05-04T01:34:26.138Z,58.20
2018-05-04T01:36:53.770Z,58.30
2018-05-04T01:39:22.030Z,58.60
2018-05-04T01:41:50.314Z,58.70
2018-05-04T01:44:17.801Z,59.20
2018-05-04T01:46:45.325Z,58.80
2018-05-04T01:49:12.840Z,59.00
2018-05-04T01:51:40.349Z,59.30
2018-05-04T01:54:07.882Z,59.30
2018-05-04T01:56:35.402Z,59.00
2018-05-04T01:59:03.691Z,59.50
2018-05-04T02:01:31.983Z,59.40
2018-05-04T02:03:59.589Z,59.40
2018-05-04T02:06:27.126Z,59.30
2018-05-04T02:08:54.616Z,59.30
2018-05-04T02:11:22.124Z,59.80
2018-05-04T02:13:50.372Z,60.00
2018-05-04T02:16:17.871Z,60.00
2018-05-04T02:18:45.519Z,60.10
2018-05-04T02:21:13.007Z,60.50
2018-05-04T02:23:41.291Z,60.70
2018-05-04T02:26:09.553Z,60.70
2018-05-04T02:28:37.853Z,61.60
2018-05-04T02:31:05.337Z,60.90
2018-05-04T02:33:32.964Z,61.10
2018-05-04T02:36:01.262Z,62.10
2018-05-04T02:38:28.759Z,62.00
2018-05-04T02:40:56.273Z,62.30
2018-05-04T02:43:24.547Z,62.60
2018-05-04T02:45:52.809Z,62.70
2018-05-04T02:48:20.477Z,62.60
2018-05-04T02:50:48.000Z,62.90
2018-05-04T02:53:15.480Z,62.80
2018-05-04T02:55:43.044Z,62.90
2018-05-04T02:58:10.552Z,63.00
2018-05-04T03:00:38.117Z,63.20
2018-05-04T03:03:06.364Z,63.20
2018-05-04T03:05:33.989Z,63.20
2018-05-04T03:08:01.469Z,63.20
2018-05-04T03:10:28.964Z,63.20
2018-05-04T03:12:56.456Z,62.90
2018-05-04T03:15:24.725Z,63.20
2018-05-04T03:17:52.971Z,63.30
2018-05-04T03:20:20.537Z,63.20
2018-05-04T03:22:48.060Z,63.30
2018-05-04T03:25:17.417Z,63.40
2018-05-04T03:27:44.905Z,63.60
2018-05-04T03:30:13.165Z,63.60
2018-05-04T03:32:40.677Z,63.60
2018-05-04T03:35:08.191Z,63.30
2018-05-04T03:37:35.773Z,63.30
2018-05-04T03:40:04.154Z,63.10
2018-05-04T03:42:33.212Z,63.20
2018-05-04T03:45:00.712Z,63.20
2018-05-04T03:47:29.011Z,63.00
2018-05-04T03:49:57.280Z,63.10
2018-05-04T03:52:25.531Z,63.40
2018-05-04T03:54:53.018Z,63.20
2018-05-04T04:00:32.766Z,63.50
2018-05-04T04:03:13.787Z,63.70
2018-05-04T04:05:42.132Z,63.50
2018-05-04T04:08:10.392Z,63.40
2018-05-04T04:10:37.889Z,64.00
2018-05-04T04:13:06.043Z,63.20
2018-05-04T04:15:33.552Z,63.30
2018-05-04T04:18:01.085Z,63.30
2018-05-04T04:20:29.562Z,62.90
2018-05-04T04:22:57.836Z,62.90
2018-05-04T04:25:25.327Z,62.90
2018-05-04T04:27:52.849Z,62.60
2018-05-04T04:30:20.377Z,63.30
2018-05-04T04:32:47.909Z,62.80
2018-05-04T04:35:15.439Z,62.30
2018-05-04T04:37:42.986Z,62.20
2018-05-04T04:40:10.493Z,61.90
2018-05-04T04:42:39.096Z,61.20
2018-05-04T04:45:06.621Z,61.10
2018-05-04T04:47:34.113Z,61.60
2018-05-04T04:50:02.385Z,61.10
2018-05-04T04:52:30.684Z,61.00
2018-05-04T04:54:58.168Z,60.90
2018-05-04T04:57:25.691Z,60.50
2018-05-04T04:59:53.949Z,57.80
2018-05-04T05:02:21.461Z,57.50
2018-05-04T05:04:48.967Z,54.70
2018-05-04T05:07:16.491Z,52.50
2018-05-04T05:09:43.989Z,50.10
2018-05-04T05:12:11.511Z,48.80
2018-05-04T05:14:39.007Z,47.90
2018-05-04T05:17:06.548Z,46.50
2018-05-04T05:19:34.043Z,45.40
2018-05-04T05:22:01.652Z,44.70
2018-05-04T05:24:29.061Z,43.90
2018-05-04T05:26:56.607Z,42.70
2018-05-04T05:29:24.187Z,42.30
2018-05-04T05:31:51.698Z,42.00
2018-05-04T05:34:19.985Z,42.40
2018-05-04T05:36:48.273Z,42.40
2018-05-04T05:39:16.542Z,42.40
2018-05-04T05:41:44.827Z,42.10
2018-05-04T05:44:14.167Z,41.60
2018-05-04T05:46:41.667Z,41.50
2018-05-04T05:49:09.171Z,41.20
2018-05-04T05:51:36.690Z,41.20
2018-05-04T05:54:04.276Z,40.80
2018-05-04T05:56:31.771Z,41.20
2018-05-04T05:58:59.269Z,40.90
2018-05-04T06:01:26.763Z,40.80
2018-05-04T06:03:54.284Z,41.40
2018-05-04T06:06:21.783Z,41.40
2018-05-04T06:08:49.299Z,41.60
2018-05-04T06:11:16.809Z,41.70
2018-05-04T06:13:44.328Z,41.20
2018-05-04T06:16:11.843Z,40.70
2018-05-04T06:18:39.375Z,40.50
2018-05-04T06:21:07.008Z,40.60
2018-05-04T06:23:34.635Z,40.50
2018-05-04T06:26:04.655Z,40.70
2018-05-04T06:28:33.265Z,39.80
2018-05-04T06:31:01.515Z,39.80
2018-05-04T06:33:29.615Z,39.80
2018-05-04T06:35:57.914Z,39.20
2018-05-04T06:38:25.427Z,39.20
2018-05-04T06:40:52.994Z,39.40
2018-05-04T06:43:21.284Z,40.30
2018-05-04T06:45:48.787Z,40.30
2018-05-04T06:48:16.326Z,40.10
2018-05-04T06:50:44.573Z,40.30
2018-05-04T06:53:12.181Z,40.30
2018-05-04T06:55:39.621Z,40.70
2018-05-04T06:58:07.147Z,39.60
2018-05-04T07:00:34.631Z,38.30
2018-05-04T07:03:02.159Z,37.50
2018-05-04T07:05:29.695Z,37.90
2018-05-04T07:07:57.970Z,36.40
2018-05-04T07:10:26.271Z,36.00
2018-05-04T07:12:53.764Z,36.00
2018-05-04T07:15:21.286Z,35.80
2018-05-04T07:17:49.551Z,34.20
2018-05-04T07:20:17.837Z,34.60
2018-05-04T07:22:46.138Z,35.10
2018-05-04T07:25:13.664Z,35.00
2018-05-04T07:27:42.068Z,34.80
2018-05-04T07:30:10.363Z,33.70
2018-05-04T07:32:38.645Z,33.90
2018-05-04T07:35:06.208Z,33.80
2018-05-04T07:37:35.708Z,34.40
2018-05-04T07:40:03.974Z,33.80
2018-05-04T07:42:31.516Z,33.80
2018-05-04T07:44:59.078Z,33.90
2018-05-04T07:47:26.606Z,34.70
2018-05-04T07:49:54.123Z,34.80
2018-05-04T07:52:21.641Z,33.70
2018-05-04T07:54:49.229Z,33.90
2018-05-04T07:57:16.741Z,32.30
2018-05-04T07:59:44.331Z,32.70
2018-05-04T08:02:11.877Z,32.20
2018-05-04T08:04:39.409Z,31.40
2018-05-04T08:07:06.897Z,31.70
2018-05-04T08:09:35.147Z,32.40
2018-05-04T08:12:02.962Z,32.40
2018-05-04T08:14:30.484Z,30.40
2018-05-04T08:16:57.985Z,31.40
2018-05-04T08:19:26.886Z,33.60
2018-05-04T08:21:54.407Z,33.60
2018-05-04T08:24:21.919Z,33.30
2018-05-04T08:26:49.415Z,34.00
2018-05-04T08:29:17.314Z,33.60
2018-05-04T08:31:45.722Z,33.50
2018-05-04T08:34:13.285Z,33.70
2018-05-04T08:36:41.653Z,32.90
2018-05-04T08:39:10.632Z,32.90
2018-05-04T08:41:41.463Z,32.80
2018-05-04T08:44:09.019Z,32.80
2018-05-04T08:46:36.510Z,33.20
2018-05-04T08:49:05.167Z,31.80
2018-05-04T08:51:32.689Z,31.80
2018-05-04T08:54:00.207Z,30.60
2018-05-04T08:56:27.698Z,29.80
2018-05-04T08:58:55.967Z,29.20
2018-05-04T09:01:24.266Z,27.90
2018-05-04T09:03:52.569Z,27.70
2018-05-04T09:06:20.123Z,27.70
2018-05-04T09:08:47.632Z,28.90
2018-05-04T09:11:16.908Z,28.90
2018-05-04T09:13:44.487Z,28.40
2018-05-04T09:16:11.985Z,26.00
2018-05-04T09:18:39.586Z,25.90
2018-05-04T09:21:07.089Z,24.60
2018-05-04T09:23:34.568Z,25.50
2018-05-04T09:26:02.081Z,26.30
2018-05-04T09:28:29.582Z,25.40
2018-05-04T09:30:58.083Z,26.30
2018-05-04T09:33:25.543Z,26.90
2018-05-04T09:35:53.052Z,26.00
2018-05-04T09:38:20.533Z,26.40
2018-05-04T09:40:48.064Z,25.90
2018-05-04T09:43:16.329Z,25.50
2018-05-04T09:45:44.649Z,26.70
2018-05-04T09:48:12.141Z,26.70
2018-05-04T09:50:39.643Z,26.90
2018-05-04T09:53:07.901Z,27.50
2018-05-04T09:55:35.598Z,27.50
2018-05-04T09:58:03.104Z,27.30
2018-05-04T10:00:30.687Z,26.60
2018-05-04T10:02:58.191Z,26.50
2018-05-04T10:05:26.652Z,27.20
2018-05-04T10:07:54.938Z,27.20
2018-05-04T10:10:23.679Z,26.60
2018-05-04T10:12:51.267Z,26.60
2018-05-04T10:15:18.773Z,26.50
2018-05-04T10:17:47.110Z,27.60
2018-05-04T10:20:14.673Z,27.60
2018-05-04T10:22:42.187Z,28.10
2018-05-04T10:25:09.722Z,28.30
2018-05-04T10:27:37.213Z,28.00
2018-05-04T10:30:05.684Z,28.30
2018-05-04T10:32:33.946Z,28.30
2018-05-04T10:35:01.460Z,28.20
2018-05-04T10:37:28.962Z,28.10
2018-05-04T10:39:56.481Z,28.30
2018-05-04T10:42:23.985Z,29.00
2018-05-04T10:44:51.593Z,29.50
2018-05-04T10:47:19.955Z,29.90
2018-05-04T10:49:48.251Z,29.90
2018-05-04T10:52:16.533Z,30.00
2018-05-04T10:54:44.910Z,28.70
2018-05-04T10:57:13.227Z,28.00
2018-05-04T10:59:42.233Z,28.40
2018-05-04T11:02:09.719Z,28.40
2018-05-04T11:04:37.280Z,28.70
2018-05-04T11:07:04.822Z,28.70
2018-05-04T11:09:32.322Z,28.70
2018-05-04T11:11:59.855Z,29.00
2018-05-04T11:14:27.371Z,28.90
2018-05-04T11:16:55.806Z,28.40
2018-05-04T11:19:23.348Z,28.30
2018-05-04T11:21:51.599Z,28.00
2018-05-04T11:24:19.871Z,28.60
2018-05-04T11:26:47.429Z,28.60
2018-05-04T11:29:15.813Z,28.80
2018-05-04T11:31:44.167Z,29.40
2018-05-04T11:34:11.673Z,29.40
2018-05-04T11:36:39.961Z,28.90
2018-05-04T11:39:08.240Z,29.00
2018-05-04T11:41:36.541Z,29.20
2018-05-04T11:44:04.142Z,29.20
2018-05-04T11:46:31.646Z,29.00
2018-05-04T11:48:59.957Z,29.60
2018-05-04T11:51:27.475Z,29.50
2018-05-04T11:53:55.030Z,28.80
2018-05-04T11:56:23.111Z,29.00
2018-05-04T11:58:55.742Z,29.70
2018-05-04T12:01:23.578Z,28.80
2018-05-04T12:03:51.866Z,28.70
2018-05-04T12:06:20.137Z,27.90
2018-05-04T12:08:48.691Z,28.10
2018-05-04T12:11:16.381Z,28.00
2018-05-04T12:13:43.879Z,28.30
2018-05-04T12:16:11.439Z,28.00
2018-05-04T12:18:40.518Z,28.30
2018-05-04T12:21:08.847Z,28.90
2018-05-04T12:23:36.394Z,28.90
2018-05-04T12:26:03.914Z,28.60
2018-05-04T12:28:31.455Z,28.60
2018-05-04T12:30:59.759Z,28.80
2018-05-04T12:33:27.290Z,28.80
2018-05-04T12:35:55.002Z,28.20
2018-05-04T12:38:22.552Z,28.30
2018-05-04T12:40:50.676Z,28.10
2018-05-04T12:43:18.283Z,27.90
2018-05-04T12:45:45.861Z,28.20
2018-05-04T12:48:13.394Z,28.10
2018-05-04T12:50:40.910Z,27.70
2018-05-04T12:53:09.223Z,27.60
2018-05-04T12:55:36.889Z,27.60
2018-05-04T12:58:04.394Z,27.40
2018-05-04T13:00:31.905Z,26.60
2018-05-04T13:02:59.429Z,26.60
2018-05-04T13:05:26.952Z,26.80
2018-05-04T13:07:54.521Z,26.60
2018-05-04T13:10:22.061Z,26.70
2018-05-04T13:12:49.595Z,26.80
2018-05-04T13:15:17.122Z,27.00
2018-05-04T13:17:44.631Z,26.60
2018-05-04T13:20:12.925Z,26.50
2018-05-04T13:22:41.197Z,26.60
2018-05-04T13:25:09.491Z,26.40
2018-05-04T13:27:37.047Z,26.40
2018-05-04T13:30:05.332Z,26.90
2018-05-04T13:32:32.837Z,26.90
2018-05-04T13:35:00.383Z,26.70
2018-05-04T13:37:28.021Z,27.00
2018-05-04T13:39:56.329Z,26.70
2018-05-04T13:42:23.816Z,26.70
2018-05-04T13:44:51.333Z,26.70
2018-05-04T13:47:18.865Z,26.80
2018-05-04T13:49:47.890Z,27.00
2018-05-04T13:52:16.401Z,26.80
2018-05-04T13:54:44.129Z,26.70
2018-05-04T13:57:12.407Z,26.00
2018-05-04T13:59:40.671Z,26.00
2018-05-04T14:02:08.978Z,26.00
2018-05-04T14:04:37.284Z,25.60
2018-05-04T14:07:04.801Z,25.60
2018-05-04T14:09:32.352Z,26.00
2018-05-04T14:11:59.868Z,25.70
2018-05-04T14:14:27.412Z,25.80
2018-05-04T14:16:55.685Z,25.30
2018-05-04T14:19:23.213Z,25.30
2018-05-04T14:21:50.737Z,26.10
2018-05-04T14:24:19.150Z,25.70
2018-05-04T14:26:46.663Z,25.60
2018-05-04T14:29:15.087Z,26.50
2018-05-04T14:31:42.651Z,26.50
2018-05-04T14:34:10.155Z,26.70
2018-05-04T14:36:37.667Z,26.60
2018-05-04T14:39:07.358Z,27.00
2018-05-04T14:41:35.241Z,26.90
2018-05-04T14:44:03.791Z,27.30
2018-05-04T14:46:31.311Z,27.30
2018-05-04T14:49:04.890Z,27.40
2018-05-04T14:51:33.203Z,27.60
2018-05-04T14:54:00.707Z,27.60
2018-05-04T14:56:28.223Z,27.70
2018-05-04T14:58:55.714Z,27.50
2018-05-04T15:01:23.242Z,27.40
2018-05-04T15:03:50.869Z,27.70
2018-05-04T15:06:18.367Z,27.70
2018-05-04T15:08:45.959Z,27.90
2018-05-04T15:11:13.501Z,27.60
2018-05-04T15:13:41.056Z,27.60
2018-05-04T15:16:08.621Z,27.90
2018-05-04T15:18:36.889Z,28.20
2018-05-04T15:21:05.165Z,27.90
2018-05-04T15:23:33.429Z,27.90
2018-05-04T15:26:02.341Z,27.90
2018-05-04T15:28:30.623Z,27.70
2018-05-04T15:30:59.261Z,27.80
2018-05-04T15:33:26.843Z,27.80
2018-05-04T15:35:55.092Z,27.90
2018-05-04T15:38:23.819Z,27.90
2018-05-04T15:40:52.400Z,27.80
2018-05-04T15:43:21.487Z,28.20
2018-05-04T15:45:48.978Z,27.70
2018-05-04T15:48:22.252Z,28.00
2018-05-04T15:50:55.424Z,28.40
2018-05-04T15:53:22.955Z,28.60
2018-05-04T15:55:51.293Z,27.30
2018-05-04T15:58:18.929Z,27.20
2018-05-04T16:00:46.487Z,27.20
2018-05-04T16:03:14.011Z,27.70
2018-05-04T16:05:41.533Z,28.10
2018-05-04T16:08:10.190Z,27.80
2018-05-04T16:10:38.633Z,29.60
2018-05-04T16:13:06.160Z,29.60
2018-05-04T16:15:33.757Z,30.20
2018-05-04T16:18:01.477Z,30.50
2018-05-04T16:20:29.150Z,30.00
2018-05-04T16:22:56.701Z,30.00
2018-05-04T16:25:24.989Z,30.10
2018-05-04T16:27:52.637Z,30.10
2018-05-04T16:30:21.023Z,30.00
2018-05-04T16:32:49.326Z,30.10
2018-05-04T16:35:16.914Z,30.10
2018-05-04T16:37:44.497Z,30.00
2018-05-04T16:40:12.003Z,30.10
2018-05-04T16:42:40.293Z,30.30
2018-05-04T16:45:07.820Z,30.30
2018-05-04T16:47:41.281Z,30.40
2018-05-04T16:50:08.797Z,30.40
2018-05-04T16:52:37.426Z,30.30
2018-05-04T16:55:05.848Z,30.40
2018-05-04T16:57:33.385Z,30.70
2018-05-04T17:00:00.902Z,30.90
2018-05-04T17:02:28.588Z,30.80
2018-05-04T17:04:57.012Z,31.10
2018-05-04T17:07:25.976Z,31.40
2018-05-04T17:09:53.504Z,31.40
2018-05-04T17:12:21.895Z,31.70
2018-05-04T17:14:50.863Z,31.70
2018-05-04T17:17:18.523Z,31.70
2018-05-04T17:19:46.037Z,31.80
2018-05-04T17:22:14.373Z,32.00
2018-05-04T17:24:42.114Z,32.00
2018-05-04T17:27:10.541Z,32.60
2018-05-04T17:29:39.624Z,32.70
2018-05-04T17:32:09.432Z,32.70
2018-05-04T17:34:37.100Z,32.60
2018-05-04T17:37:04.635Z,32.60
2018-05-04T17:39:32.165Z,32.90
2018-05-04T17:42:00.475Z,33.10
2018-05-04T17:44:27.998Z,33.10
2018-05-04T17:46:56.306Z,33.40
2018-05-04T17:49:23.824Z,33.40
2018-05-04T17:51:51.317Z,33.60
2018-05-04T17:54:19.626Z,33.70
2018-05-04T17:56:47.139Z,33.60
2018-05-04T17:59:16.628Z,34.10
2018-05-04T18:01:44.152Z,33.50
2018-05-04T18:04:11.659Z,33.40
2018-05-04T18:06:39.197Z,33.60
2018-05-04T18:09:07.823Z,33.20
2018-05-04T18:11:35.419Z,33.10
2018-05-04T18:14:03.777Z,33.50
2018-05-04T18:16:31.417Z,33.50
2018-05-04T18:19:00.255Z,33.90
2018-05-04T18:21:28.007Z,34.10
2018-05-04T18:23:57.039Z,34.60
2018-05-04T18:26:25.295Z,34.90
2018-05-04T18:28:53.593Z,35.20
2018-05-04T18:31:21.879Z,35.40
2018-05-04T18:33:49.704Z,35.40
2018-05-04T18:36:18.317Z,36.00
2018-05-04T18:38:45.965Z,36.00
2018-05-04T18:41:14.311Z,37.00
2018-05-04T18:43:41.851Z,36.70
2018-05-04T18:46:10.222Z,37.40
2018-05-04T18:48:38.505Z,37.90
2018-05-04T18:51:06.859Z,38.40
2018-05-04T18:53:34.472Z,38.40
2018-05-04T18:56:02.007Z,38.70
2018-05-04T18:58:30.339Z,39.30
2018-05-04T19:00:57.863Z,39.30
2018-05-04T19:03:25.435Z,39.70
2018-05-04T19:05:53.745Z,40.50
2018-05-04T19:08:21.249Z,40.50
2018-05-04T19:10:48.865Z,41.00
2018-05-04T19:13:16.372Z,42.10
2018-05-04T19:15:44.464Z,42.40
2018-05-04T19:18:12.017Z,42.90
2018-05-04T19:20:39.695Z,43.80
2018-05-04T19:23:07.282Z,44.90
2018-05-04T19:25:35.685Z,47.40
2018-05-04T19:28:03.220Z,47.40
2018-05-04T19:30:31.500Z,49.50
2018-05-04T19:32:59.766Z,50.30
2018-05-04T19:35:27.307Z,50.30
2018-05-04T19:37:55.216Z,51.40
2018-05-04T19:40:23.601Z,52.00
2018-05-04T19:42:52.659Z,52.40
2018-05-04T19:45:20.184Z,52.40
2018-05-04T19:47:47.841Z,52.80
2018-05-04T19:50:16.160Z,53.40
2018-05-04T19:52:43.699Z,53.70
2018-05-04T19:55:11.987Z,53.60
2018-05-04T19:57:39.497Z,53.70
2018-05-04T20:00:07.174Z,53.90
2018-05-04T20:02:36.558Z,54.20
2018-05-04T20:05:04.127Z,54.20
2018-05-04T20:07:32.453Z,54.60
2018-05-04T20:10:00.850Z,54.60
2018-05-04T20:12:28.385Z,55.00
2018-05-04T20:14:56.666Z,55.40
2018-05-04T20:17:25.149Z,55.80
2018-05-04T20:19:53.432Z,56.10
2018-05-04T20:22:21.720Z,56.40
2018-05-04T20:24:50.244Z,56.50
2018-05-04T20:27:17.787Z,56.50
2018-05-04T20:29:45.292Z,56.80
2018-05-04T20:32:12.839Z,56.90
2018-05-04T20:34:41.823Z,57.10
2018-05-04T20:37:10.866Z,57.40
2018-05-04T20:39:39.202Z,57.90
2018-05-04T20:42:06.735Z,57.90
2018-05-04T20:44:35.623Z,58.40
2018-05-04T20:47:03.935Z,58.50
2018-05-04T20:49:31.419Z,58.50
2018-05-04T20:51:58.975Z,58.60
2018-05-04T20:54:26.500Z,58.70
2018-05-04T20:56:55.285Z,58.70
2018-05-04T20:59:23.927Z,58.80
2018-05-04T21:01:52.323Z,58.90
2018-05-04T21:04:19.891Z,58.90
2018-05-04T21:06:47.435Z,59.20
2018-05-04T21:09:15.381Z,59.20
2018-05-04T21:11:45.699Z,59.20
2018-05-04T21:14:13.982Z,58.90
2018-05-04T21:16:42.334Z,59.00
2018-05-04T21:19:11.491Z,59.00
2018-05-04T21:21:39.015Z,58.90
2018-05-04T21:24:08.552Z,59.20
2018-05-04T21:26:36.897Z,59.20
2018-05-04T21:29:04.403Z,59.30
2018-05-04T21:31:31.940Z,59.30
2018-05-04T21:34:00.230Z,59.50
2018-05-04T21:36:27.785Z,59.50
2018-05-04T21:38:56.113Z,59.70
2018-05-04T21:41:23.641Z,59.60
2018-05-04T21:43:51.991Z,59.80
2018-05-04T21:46:21.087Z,59.80
2018-05-04T21:48:49.371Z,59.90
2018-05-04T21:51:18.445Z,60.00
2018-05-04T21:53:46.596Z,60.00
2018-05-04T21:56:14.600Z,60.30
2018-05-04T21:58:42.137Z,60.00
2018-05-04T22:01:09.738Z,60.00
2018-05-04T22:03:38.072Z,60.00
2018-05-04T22:06:05.574Z,60.10
2018-05-04T22:08:33.099Z,59.90
2018-05-04T22:11:00.708Z,59.80
2018-05-04T22:13:29.039Z,59.90
2018-05-04T22:15:56.526Z,59.90
2018-05-04T22:18:24.053Z,60.00
2018-05-04T22:20:52.583Z,60.00
2018-05-04T22:23:20.113Z,60.00
2018-05-04T22:25:48.376Z,60.20
2018-05-04T22:28:16.413Z,60.20
2018-05-04T22:30:43.919Z,60.00
2018-05-04T22:33:12.179Z,60.00
2018-05-04T22:35:39.747Z,60.00
2018-05-04T22:38:07.424Z,60.00
2018-05-04T22:40:35.352Z,59.90
2018-05-04T22:43:02.899Z,59.30
2018-05-04T22:45:30.425Z,59.20
2018-05-04T22:47:57.991Z,59.40
2018-05-04T22:50:26.500Z,59.80
2018-05-04T22:52:54.363Z,59.40
2018-05-04T22:55:22.889Z,59.20
2018-05-04T22:57:50.447Z,59.10
2018-05-04T23:00:18.730Z,59.40
2018-05-04T23:02:46.231Z,59.70
2018-05-04T23:05:15.264Z,59.70
2018-05-04T23:07:43.539Z,59.80
2018-05-04T23:10:12.538Z,59.80
2018-05-04T23:12:40.810Z,59.80
2018-05-04T23:15:09.077Z,59.80
2018-05-04T23:17:37.349Z,60.00
2018-05-04T23:20:04.883Z,59.90
2018-05-04T23:22:32.378Z,60.20
2018-05-04T23:25:00.734Z,60.80
2018-05-04T23:27:28.331Z,60.90
2018-05-04T23:29:56.598Z,59.90
2018-05-04T23:32:24.116Z,61.30
2018-05-04T23:34:51.637Z,61.40
2018-05-04T23:37:19.133Z,61.50
2018-05-04T23:39:46.613Z,61.50
2018-05-04T23:42:14.121Z,61.70
2018-05-04T23:44:41.647Z,61.70
2018-05-04T23:47:09.135Z,61.90
2018-05-04T23:49:36.625Z,62.00
2018-05-04T23:52:04.152Z,62.00
2018-05-04T23:54:31.685Z,62.10
2018-05-04T23:56:59.270Z,62.40
2018-05-04T23:59:26.784Z,62.50
